sensor_id;sensor_type;location;lat;lon;timestamp;temperature;humidity
2226;DHT22;1119;48.288;8.726;2022-11-06T00:00:07;3.60;99.90
2226;DHT22;1119;48.288;8.726;2022-11-06T00:02:35;4.10;99.90
2226;DHT22;1119;48.288;8.726;2022-11-06T00:05:03;5.00;99.90
2226;DHT22;1119;48.288;8.726;2022-11-06T00:07:50;4.00;99.90
2226;DHT22;1119;48.288;8.726;2022-11-06T00:10:18;4.30;99.90
2226;DHT22;1119;48.288;8.726;2022-11-06T00:12:46;4.20;99.90
2226;DHT22;1119;48.288;8.726;2022-11-06T00:15:13;3.70;99.90
2226;DHT22;1119;48.288;8.726;2022-11-06T00:17:41;4.80;99.90
2226;DHT22;1119;48.288;8.726;2022-11-06T00:20:09;5.30;99.90
2226;DHT22;1119;48.288;8.726;2022-11-06T00:22:37;4.40;99.90
2226;DHT22;1119;48.288;8.726;2022-11-06T00:25:07;4.30;99.90
2226;DHT22;1119;48.288;8.726;2022-11-06T00:27:35;3.80;99.90
2226;DHT22;1119;48.288;8.726;2022-11-06T00:30:04;4.10;99.90
2226;DHT22;1119;48.288;8.726;2022-11-06T00:32:33;3.70;99.90
2226;DHT22;1119;48.288;8.726;2022-11-06T00:35:00;3.90;99.90
2226;DHT22;1119;48.288;8.726;2022-11-06T00:37:28;3.70;99.90
2226;DHT22;1119;48.288;8.726;2022-11-06T00:39:57;3.70;99.90
2226;DHT22;1119;48.288;8.726;2022-11-06T00:42:27;3.70;99.90
2226;DHT22;1119;48.288;8.726;2022-11-06T00:44:54;3.50;99.90
2226;DHT22;1119;48.288;8.726;2022-11-06T00:47:22;3.30;99.90
2226;DHT22;1119;48.288;8.726;2022-11-06T00:49:50;3.50;99.90
2226;DHT22;1119;48.288;8.726;2022-11-06T00:52:17;3.70;99.90
2226;DHT22;1119;48.288;8.726;2022-11-06T00:54:45;4.60;99.90
2226;DHT22;1119;48.288;8.726;2022-11-06T00:57:13;4.00;99.90
2226;DHT22;1119;48.288;8.726;2022-11-06T00:59:42;3.30;99.90
2226;DHT22;1119;48.288;8.726;2022-11-06T01:02:09;4.30;99.90
2226;DHT22;1119;48.288;8.726;2022-11-06T01:04:37;5.20;99.90
2226;DHT22;1119;48.288;8.726;2022-11-06T01:07:04;4.20;99.90
2226;DHT22;1119;48.288;8.726;2022-11-06T01:09:32;3.50;99.90
2226;DHT22;1119;48.288;8.726;2022-11-06T01:11:59;4.90;99.90
2226;DHT22;1119;48.288;8.726;2022-11-06T01:14:28;5.30;99.90
2226;DHT22;1119;48.288;8.726;2022-11-06T01:19:24;3.40;99.90
2226;DHT22;1119;48.288;8.726;2022-11-06T01:21:52;3.40;99.90
2226;DHT22;1119;48.288;8.726;2022-11-06T01:24:22;3.40;99.90
2226;DHT22;1119;48.288;8.726;2022-11-06T01:27:02;3.90;99.90
2226;DHT22;1119;48.288;8.726;2022-11-06T01:29:42;4.20;99.90
2226;DHT22;1119;48.288;8.726;2022-11-06T01:32:11;3.50;99.90
2226;DHT22;1119;48.288;8.726;2022-11-06T01:34:39;2.90;99.90
2226;DHT22;1119;48.288;8.726;2022-11-06T01:37:07;4.50;99.90
2226;DHT22;1119;48.288;8.726;2022-11-06T01:39:34;2.80;99.90
2226;DHT22;1119;48.288;8.726;2022-11-06T01:42:02;3.90;99.90
2226;DHT22;1119;48.288;8.726;2022-11-06T01:45:04;2.90;99.90
2226;DHT22;1119;48.288;8.726;2022-11-06T01:47:44;3.10;99.90
2226;DHT22;1119;48.288;8.726;2022-11-06T01:50:13;1.50;99.90
2226;DHT22;1119;48.288;8.726;2022-11-06T01:52:42;2.40;99.90
2226;DHT22;1119;48.288;8.726;2022-11-06T01:55:13;2.40;99.90
2226;DHT22;1119;48.288;8.726;2022-11-06T01:57:46;2.40;99.90
2226;DHT22;1119;48.288;8.726;2022-11-06T02:00:14;2.40;99.90
2226;DHT22;1119;48.288;8.726;2022-11-06T02:02:44;2.10;99.90
2226;DHT22;1119;48.288;8.726;2022-11-06T02:05:11;2.50;99.90
2226;DHT22;1119;48.288;8.726;2022-11-06T02:07:40;3.40;99.90
2226;DHT22;1119;48.288;8.726;2022-11-06T02:10:09;3.90;99.90
2226;DHT22;1119;48.288;8.726;2022-11-06T02:12:53;3.30;99.90
2226;DHT22;1119;48.288;8.726;2022-11-06T02:15:37;3.30;99.90
2226;DHT22;1119;48.288;8.726;2022-11-06T02:18:23;3.90;99.90
2226;DHT22;1119;48.288;8.726;2022-11-06T02:21:35;3.10;99.90
2226;DHT22;1119;48.288;8.726;2022-11-06T02:24:50;2.90;99.90
2226;DHT22;1119;48.288;8.726;2022-11-06T02:27:41;4.00;99.90
2226;DHT22;1119;48.288;8.726;2022-11-06T02:30:40;2.90;99.90
2226;DHT22;1119;48.288;8.726;2022-11-06T02:33:22;2.30;99.90
2226;DHT22;1119;48.288;8.726;2022-11-06T02:36:01;2.70;99.90
2226;DHT22;1119;48.288;8.726;2022-11-06T02:38:39;2.90;99.90
2226;DHT22;1119;48.288;8.726;2022-11-06T02:41:11;2.60;99.90
2226;DHT22;1119;48.288;8.726;2022-11-06T02:43:46;2.50;99.90
2226;DHT22;1119;48.288;8.726;2022-11-06T02:46:25;2.50;99.90
2226;DHT22;1119;48.288;8.726;2022-11-06T02:48:58;3.10;99.90
2226;DHT22;1119;48.288;8.726;2022-11-06T02:51:42;3.70;99.90
2226;DHT22;1119;48.288;8.726;2022-11-06T02:54:33;2.60;99.90
2226;DHT22;1119;48.288;8.726;2022-11-06T02:57:07;1.30;99.90
2226;DHT22;1119;48.288;8.726;2022-11-06T03:00:03;3.70;99.90
2226;DHT22;1119;48.288;8.726;2022-11-06T03:02:39;3.30;99.90
2226;DHT22;1119;48.288;8.726;2022-11-06T03:05:25;2.60;99.90
2226;DHT22;1119;48.288;8.726;2022-11-06T03:08:09;3.00;99.90
2226;DHT22;1119;48.288;8.726;2022-11-06T03:10:53;2.40;99.90
2226;DHT22;1119;48.288;8.726;2022-11-06T03:13:59;2.60;99.90
2226;DHT22;1119;48.288;8.726;2022-11-06T03:16:42;1.30;99.90
2226;DHT22;1119;48.288;8.726;2022-11-06T03:19:44;3.80;99.90
2226;DHT22;1119;48.288;8.726;2022-11-06T03:22:16;1.70;99.90
2226;DHT22;1119;48.288;8.726;2022-11-06T03:24:57;2.80;99.90
2226;DHT22;1119;48.288;8.726;2022-11-06T03:27:31;3.70;99.90
2226;DHT22;1119;48.288;8.726;2022-11-06T03:30:03;2.40;99.90
2226;DHT22;1119;48.288;8.726;2022-11-06T03:32:37;2.60;99.90
2226;DHT22;1119;48.288;8.726;2022-11-06T03:35:11;2.90;99.90
2226;DHT22;1119;48.288;8.726;2022-11-06T03:37:45;2.90;99.90
2226;DHT22;1119;48.288;8.726;2022-11-06T03:40:19;3.40;99.90
2226;DHT22;1119;48.288;8.726;2022-11-06T03:42:49;3.30;99.90
2226;DHT22;1119;48.288;8.726;2022-11-06T03:45:21;2.40;99.90
2226;DHT22;1119;48.288;8.726;2022-11-06T03:47:56;3.00;99.90
2226;DHT22;1119;48.288;8.726;2022-11-06T03:50:28;2.80;99.90
2226;DHT22;1119;48.288;8.726;2022-11-06T03:53:04;2.40;99.90
2226;DHT22;1119;48.288;8.726;2022-11-06T03:55:37;3.20;99.90
2226;DHT22;1119;48.288;8.726;2022-11-06T03:58:09;4.00;99.90
2226;DHT22;1119;48.288;8.726;2022-11-06T04:00:41;3.60;99.90
2226;DHT22;1119;48.288;8.726;2022-11-06T04:03:15;2.60;99.90
2226;DHT22;1119;48.288;8.726;2022-11-06T04:05:52;3.40;99.90
2226;DHT22;1119;48.288;8.726;2022-11-06T04:08:24;2.70;99.90
2226;DHT22;1119;48.288;8.726;2022-11-06T04:11:14;3.20;99.90
2226;DHT22;1119;48.288;8.726;2022-11-06T04:14:02;3.20;99.90
2226;DHT22;1119;48.288;8.726;2022-11-06T04:16:33;3.70;99.90
2226;DHT22;1119;48.288;8.726;2022-11-06T04:19:20;3.70;99.90
2226;DHT22;1119;48.288;8.726;2022-11-06T04:22:09;4.30;99.90
2226;DHT22;1119;48.288;8.726;2022-11-06T04:24:54;4.00;99.90
2226;DHT22;1119;48.288;8.726;2022-11-06T04:27:57;2.90;99.90
2226;DHT22;1119;48.288;8.726;2022-11-06T04:30:38;3.70;99.90
2226;DHT22;1119;48.288;8.726;2022-11-06T04:33:12;3.10;99.90
2226;DHT22;1119;48.288;8.726;2022-11-06T04:35:52;3.80;99.90
2226;DHT22;1119;48.288;8.726;2022-11-06T04:38:32;2.80;99.90
2226;DHT22;1119;48.288;8.726;2022-11-06T04:41:20;3.70;99.90
2226;DHT22;1119;48.288;8.726;2022-11-06T04:44:02;3.90;99.90
2226;DHT22;1119;48.288;8.726;2022-11-06T04:46:34;4.20;99.90
2226;DHT22;1119;48.288;8.726;2022-11-06T04:49:04;2.70;99.90
2226;DHT22;1119;48.288;8.726;2022-11-06T04:51:36;3.00;99.90
2226;DHT22;1119;48.288;8.726;2022-11-06T04:54:06;3.20;99.90
2226;DHT22;1119;48.288;8.726;2022-11-06T04:56:36;3.20;99.90
2226;DHT22;1119;48.288;8.726;2022-11-06T04:59:04;2.80;99.90
2226;DHT22;1119;48.288;8.726;2022-11-06T05:01:33;2.70;99.90
2226;DHT22;1119;48.288;8.726;2022-11-06T05:04:00;2.80;99.90
2226;DHT22;1119;48.288;8.726;2022-11-06T05:06:28;2.80;99.90
2226;DHT22;1119;48.288;8.726;2022-11-06T05:08:57;3.50;99.90
2226;DHT22;1119;48.288;8.726;2022-11-06T05:11:26;2.90;99.90
2226;DHT22;1119;48.288;8.726;2022-11-06T05:13:53;3.10;99.90
2226;DHT22;1119;48.288;8.726;2022-11-06T05:16:21;1.70;99.90
2226;DHT22;1119;48.288;8.726;2022-11-06T05:18:48;3.50;99.90
2226;DHT22;1119;48.288;8.726;2022-11-06T05:21:16;2.80;99.90
2226;DHT22;1119;48.288;8.726;2022-11-06T05:24:02;3.60;99.90
2226;DHT22;1119;48.288;8.726;2022-11-06T05:26:31;2.50;99.90
2226;DHT22;1119;48.288;8.726;2022-11-06T05:28:58;3.60;99.90
2226;DHT22;1119;48.288;8.726;2022-11-06T05:31:26;3.20;99.90
2226;DHT22;1119;48.288;8.726;2022-11-06T05:33:54;1.70;99.90
2226;DHT22;1119;48.288;8.726;2022-11-06T05:36:21;3.40;99.90
2226;DHT22;1119;48.288;8.726;2022-11-06T05:38:49;2.50;99.90
2226;DHT22;1119;48.288;8.726;2022-11-06T05:41:18;2.40;99.90
2226;DHT22;1119;48.288;8.726;2022-11-06T05:43:46;4.00;99.90
2226;DHT22;1119;48.288;8.726;2022-11-06T05:46:14;2.20;99.90
2226;DHT22;1119;48.288;8.726;2022-11-06T05:48:42;3.30;99.90
2226;DHT22;1119;48.288;8.726;2022-11-06T05:51:10;2.10;99.90
2226;DHT22;1119;48.288;8.726;2022-11-06T05:53:37;2.60;99.90
2226;DHT22;1119;48.288;8.726;2022-11-06T05:56:05;1.20;99.90
2226;DHT22;1119;48.288;8.726;2022-11-06T05:58:35;2.30;99.90
2226;DHT22;1119;48.288;8.726;2022-11-06T06:01:03;2.60;99.90
2226;DHT22;1119;48.288;8.726;2022-11-06T06:03:31;0.60;99.90
2226;DHT22;1119;48.288;8.726;2022-11-06T06:05:58;1.30;99.90
2226;DHT22;1119;48.288;8.726;2022-11-06T06:08:26;1.90;99.90
2226;DHT22;1119;48.288;8.726;2022-11-06T06:10:53;2.80;99.90
2226;DHT22;1119;48.288;8.726;2022-11-06T06:13:21;3.30;99.90
2226;DHT22;1119;48.288;8.726;2022-11-06T06:15:49;2.60;99.90
2226;DHT22;1119;48.288;8.726;2022-11-06T06:18:17;3.30;99.90
2226;DHT22;1119;48.288;8.726;2022-11-06T06:20:44;3.10;99.90
2226;DHT22;1119;48.288;8.726;2022-11-06T06:23:12;2.80;99.90
2226;DHT22;1119;48.288;8.726;2022-11-06T06:25:39;2.00;99.90
2226;DHT22;1119;48.288;8.726;2022-11-06T06:28:07;2.20;99.90
2226;DHT22;1119;48.288;8.726;2022-11-06T06:30:34;3.10;99.90
2226;DHT22;1119;48.288;8.726;2022-11-06T06:33:05;3.70;99.90
2226;DHT22;1119;48.288;8.726;2022-11-06T06:35:33;3.90;99.90
2226;DHT22;1119;48.288;8.726;2022-11-06T06:38:01;2.80;99.90
2226;DHT22;1119;48.288;8.726;2022-11-06T06:40:28;3.00;99.90
2226;DHT22;1119;48.288;8.726;2022-11-06T06:42:58;3.60;99.90
2226;DHT22;1119;48.288;8.726;2022-11-06T06:45:25;4.10;99.90
2226;DHT22;1119;48.288;8.726;2022-11-06T06:47:53;5.50;99.90
2226;DHT22;1119;48.288;8.726;2022-11-06T06:50:22;5.00;99.90
2226;DHT22;1119;48.288;8.726;2022-11-06T06:52:54;6.20;99.90
2226;DHT22;1119;48.288;8.726;2022-11-06T06:55:22;4.30;99.90
2226;DHT22;1119;48.288;8.726;2022-11-06T06:57:55;3.80;99.90
2226;DHT22;1119;48.288;8.726;2022-11-06T07:00:24;4.50;99.90
2226;DHT22;1119;48.288;8.726;2022-11-06T07:02:52;3.50;99.90
2226;DHT22;1119;48.288;8.726;2022-11-06T07:05:19;4.00;99.90
2226;DHT22;1119;48.288;8.726;2022-11-06T07:07:48;3.40;99.90
2226;DHT22;1119;48.288;8.726;2022-11-06T07:10:16;3.80;99.90
2226;DHT22;1119;48.288;8.726;2022-11-06T07:12:44;3.20;99.90
2226;DHT22;1119;48.288;8.726;2022-11-06T07:15:11;3.30;99.90
2226;DHT22;1119;48.288;8.726;2022-11-06T07:17:39;3.60;99.90
2226;DHT22;1119;48.288;8.726;2022-11-06T07:20:07;3.40;99.90
2226;DHT22;1119;48.288;8.726;2022-11-06T07:22:37;3.50;99.90
2226;DHT22;1119;48.288;8.726;2022-11-06T07:25:05;3.60;99.90
2226;DHT22;1119;48.288;8.726;2022-11-06T07:27:33;3.70;99.90
2226;DHT22;1119;48.288;8.726;2022-11-06T07:30:01;3.70;99.90
2226;DHT22;1119;48.288;8.726;2022-11-06T07:32:29;3.90;99.90
2226;DHT22;1119;48.288;8.726;2022-11-06T07:34:57;4.60;99.90
2226;DHT22;1119;48.288;8.726;2022-11-06T07:37:24;5.10;99.90
2226;DHT22;1119;48.288;8.726;2022-11-06T07:39:53;4.30;99.90
2226;DHT22;1119;48.288;8.726;2022-11-06T07:42:20;4.40;99.90
2226;DHT22;1119;48.288;8.726;2022-11-06T07:44:58;4.50;99.90
2226;DHT22;1119;48.288;8.726;2022-11-06T07:47:25;4.60;99.90
2226;DHT22;1119;48.288;8.726;2022-11-06T07:49:54;4.70;99.90
2226;DHT22;1119;48.288;8.726;2022-11-06T07:52:22;4.90;99.90
2226;DHT22;1119;48.288;8.726;2022-11-06T07:54:49;5.00;99.90
2226;DHT22;1119;48.288;8.726;2022-11-06T07:57:18;4.90;99.90
2226;DHT22;1119;48.288;8.726;2022-11-06T07:59:46;5.20;99.90
2226;DHT22;1119;48.288;8.726;2022-11-06T08:02:13;4.90;99.90
2226;DHT22;1119;48.288;8.726;2022-11-06T08:04:42;5.10;99.90
2226;DHT22;1119;48.288;8.726;2022-11-06T08:07:09;5.10;99.90
2226;DHT22;1119;48.288;8.726;2022-11-06T08:09:37;5.10;99.90
2226;DHT22;1119;48.288;8.726;2022-11-06T08:12:05;5.00;99.90
2226;DHT22;1119;48.288;8.726;2022-11-06T08:14:35;5.20;99.90
2226;DHT22;1119;48.288;8.726;2022-11-06T08:17:02;4.60;99.90
2226;DHT22;1119;48.288;8.726;2022-11-06T08:19:29;5.70;99.90
2226;DHT22;1119;48.288;8.726;2022-11-06T08:21:57;5.40;99.90
2226;DHT22;1119;48.288;8.726;2022-11-06T08:24:24;5.80;99.90
2226;DHT22;1119;48.288;8.726;2022-11-06T08:26:52;5.30;99.90
2226;DHT22;1119;48.288;8.726;2022-11-06T08:29:19;5.60;99.90
2226;DHT22;1119;48.288;8.726;2022-11-06T08:31:48;6.10;99.90
2226;DHT22;1119;48.288;8.726;2022-11-06T08:34:15;5.60;99.90
2226;DHT22;1119;48.288;8.726;2022-11-06T08:36:44;5.70;99.90
2226;DHT22;1119;48.288;8.726;2022-11-06T08:39:18;6.30;99.90
2226;DHT22;1119;48.288;8.726;2022-11-06T08:41:45;6.00;99.90
2226;DHT22;1119;48.288;8.726;2022-11-06T08:44:13;6.50;99.90
2226;DHT22;1119;48.288;8.726;2022-11-06T08:46:40;6.00;99.90
2226;DHT22;1119;48.288;8.726;2022-11-06T08:49:10;6.60;99.90
2226;DHT22;1119;48.288;8.726;2022-11-06T08:51:42;6.50;99.90
2226;DHT22;1119;48.288;8.726;2022-11-06T08:54:10;6.70;99.90
2226;DHT22;1119;48.288;8.726;2022-11-06T08:56:37;6.10;99.90
2226;DHT22;1119;48.288;8.726;2022-11-06T08:59:05;5.90;99.90
2226;DHT22;1119;48.288;8.726;2022-11-06T09:01:32;6.00;99.90
2226;DHT22;1119;48.288;8.726;2022-11-06T09:04:00;6.80;99.90
2226;DHT22;1119;48.288;8.726;2022-11-06T09:06:28;6.50;99.90
2226;DHT22;1119;48.288;8.726;2022-11-06T09:08:56;7.10;99.90
2226;DHT22;1119;48.288;8.726;2022-11-06T09:11:26;5.40;99.90
2226;DHT22;1119;48.288;8.726;2022-11-06T09:14:00;5.90;99.90
2226;DHT22;1119;48.288;8.726;2022-11-06T09:16:28;5.50;99.90
2226;DHT22;1119;48.288;8.726;2022-11-06T09:18:56;5.70;99.90
2226;DHT22;1119;48.288;8.726;2022-11-06T09:21:38;5.50;99.90
2226;DHT22;1119;48.288;8.726;2022-11-06T09:24:23;6.00;99.90
2226;DHT22;1119;48.288;8.726;2022-11-06T09:27:03;7.30;99.90
2226;DHT22;1119;48.288;8.726;2022-11-06T09:29:31;5.10;99.90
2226;DHT22;1119;48.288;8.726;2022-11-06T09:31:58;5.50;99.90
2226;DHT22;1119;48.288;8.726;2022-11-06T09:34:26;5.70;99.90
2226;DHT22;1119;48.288;8.726;2022-11-06T09:36:55;5.40;99.90
2226;DHT22;1119;48.288;8.726;2022-11-06T09:39:26;7.10;99.90
2226;DHT22;1119;48.288;8.726;2022-11-06T09:41:57;5.50;99.90
2226;DHT22;1119;48.288;8.726;2022-11-06T09:44:39;5.90;99.90
2226;DHT22;1119;48.288;8.726;2022-11-06T09:47:27;5.90;99.90
2226;DHT22;1119;48.288;8.726;2022-11-06T09:49:58;5.80;99.90
2226;DHT22;1119;48.288;8.726;2022-11-06T09:52:32;6.00;99.90
2226;DHT22;1119;48.288;8.726;2022-11-06T09:55:08;6.00;99.90
2226;DHT22;1119;48.288;8.726;2022-11-06T09:57:39;6.10;99.90
2226;DHT22;1119;48.288;8.726;2022-11-06T10:00:12;6.20;99.90
2226;DHT22;1119;48.288;8.726;2022-11-06T10:02:46;6.20;99.90
2226;DHT22;1119;48.288;8.726;2022-11-06T10:05:22;6.30;99.90
2226;DHT22;1119;48.288;8.726;2022-11-06T10:07:54;6.30;99.90
2226;DHT22;1119;48.288;8.726;2022-11-06T10:10:28;7.80;99.90
2226;DHT22;1119;48.288;8.726;2022-11-06T10:13:38;6.10;99.90
2226;DHT22;1119;48.288;8.726;2022-11-06T10:16:27;6.50;99.90
2226;DHT22;1119;48.288;8.726;2022-11-06T10:19:05;6.90;99.90
2226;DHT22;1119;48.288;8.726;2022-11-06T10:21:45;7.80;99.90
2226;DHT22;1119;48.288;8.726;2022-11-06T10:24:21;7.60;99.90
2226;DHT22;1119;48.288;8.726;2022-11-06T10:26:52;6.70;99.90
2226;DHT22;1119;48.288;8.726;2022-11-06T10:29:34;6.80;99.90
2226;DHT22;1119;48.288;8.726;2022-11-06T10:32:26;7.10;99.90
2226;DHT22;1119;48.288;8.726;2022-11-06T10:35:04;7.00;99.90
2226;DHT22;1119;48.288;8.726;2022-11-06T10:37:38;7.10;99.90
2226;DHT22;1119;48.288;8.726;2022-11-06T10:40:15;7.20;99.90
2226;DHT22;1119;48.288;8.726;2022-11-06T10:42:46;7.10;99.90
2226;DHT22;1119;48.288;8.726;2022-11-06T10:45:21;7.00;99.90
2226;DHT22;1119;48.288;8.726;2022-11-06T10:47:53;7.60;99.90
2226;DHT22;1119;48.288;8.726;2022-11-06T10:50:27;8.10;99.90
2226;DHT22;1119;48.288;8.726;2022-11-06T10:53:02;7.10;99.90
2226;DHT22;1119;48.288;8.726;2022-11-06T10:55:59;7.20;99.90
2226;DHT22;1119;48.288;8.726;2022-11-06T10:58:37;7.40;99.90
2226;DHT22;1119;48.288;8.726;2022-11-06T11:01:05;7.70;99.90
2226;DHT22;1119;48.288;8.726;2022-11-06T11:03:38;7.80;99.90
2226;DHT22;1119;48.288;8.726;2022-11-06T11:06:06;8.10;99.90
2226;DHT22;1119;48.288;8.726;2022-11-06T11:08:36;8.10;99.90
2226;DHT22;1119;48.288;8.726;2022-11-06T11:11:22;8.30;99.90
2226;DHT22;1119;48.288;8.726;2022-11-06T11:14:12;8.60;99.90
2226;DHT22;1119;48.288;8.726;2022-11-06T11:16:42;8.70;99.90
2226;DHT22;1119;48.288;8.726;2022-11-06T11:19:20;9.30;99.90
2226;DHT22;1119;48.288;8.726;2022-11-06T11:21:55;9.20;99.90
2226;DHT22;1119;48.288;8.726;2022-11-06T11:24:24;9.30;99.90
2226;DHT22;1119;48.288;8.726;2022-11-06T11:26:54;9.30;99.90
2226;DHT22;1119;48.288;8.726;2022-11-06T11:29:27;10.30;99.90
2226;DHT22;1119;48.288;8.726;2022-11-06T11:31:57;9.90;99.90
2226;DHT22;1119;48.288;8.726;2022-11-06T11:34:28;9.40;99.90
2226;DHT22;1119;48.288;8.726;2022-11-06T11:36:59;9.60;99.90
2226;DHT22;1119;48.288;8.726;2022-11-06T11:39:30;9.50;99.90
2226;DHT22;1119;48.288;8.726;2022-11-06T11:42:21;9.80;99.90
2226;DHT22;1119;48.288;8.726;2022-11-06T11:45:17;9.90;99.90
2226;DHT22;1119;48.288;8.726;2022-11-06T11:47:47;10.20;99.90
2226;DHT22;1119;48.288;8.726;2022-11-06T11:50:23;10.20;99.90
2226;DHT22;1119;48.288;8.726;2022-11-06T11:52:59;10.50;99.90
2226;DHT22;1119;48.288;8.726;2022-11-06T11:55:29;10.60;99.90
2226;DHT22;1119;48.288;8.726;2022-11-06T11:58:00;10.70;99.90
2226;DHT22;1119;48.288;8.726;2022-11-06T12:00:28;10.70;99.90
2226;DHT22;1119;48.288;8.726;2022-11-06T12:02:58;10.90;99.90
2226;DHT22;1119;48.288;8.726;2022-11-06T12:05:31;10.80;99.90
2226;DHT22;1119;48.288;8.726;2022-11-06T12:08:00;10.90;99.90
2226;DHT22;1119;48.288;8.726;2022-11-06T12:10:31;10.90;99.90
2226;DHT22;1119;48.288;8.726;2022-11-06T12:13:03;11.00;99.90
2226;DHT22;1119;48.288;8.726;2022-11-06T12:15:39;11.10;99.90
2226;DHT22;1119;48.288;8.726;2022-11-06T12:18:12;11.10;99.90
2226;DHT22;1119;48.288;8.726;2022-11-06T12:20:48;11.30;99.90
2226;DHT22;1119;48.288;8.726;2022-11-06T12:23:22;11.50;99.90
2226;DHT22;1119;48.288;8.726;2022-11-06T12:25:58;11.50;99.90
2226;DHT22;1119;48.288;8.726;2022-11-06T12:28:34;11.50;99.90
2226;DHT22;1119;48.288;8.726;2022-11-06T12:31:10;11.50;99.90
2226;DHT22;1119;48.288;8.726;2022-11-06T12:33:40;12.00;99.90
2226;DHT22;1119;48.288;8.726;2022-11-06T12:36:13;11.50;99.90
2226;DHT22;1119;48.288;8.726;2022-11-06T12:38:45;11.50;99.90
2226;DHT22;1119;48.288;8.726;2022-11-06T12:41:20;11.40;99.90
2226;DHT22;1119;48.288;8.726;2022-11-06T12:43:51;11.40;99.90
2226;DHT22;1119;48.288;8.726;2022-11-06T12:46:31;11.30;99.90
2226;DHT22;1119;48.288;8.726;2022-11-06T12:49:31;11.30;99.90
2226;DHT22;1119;48.288;8.726;2022-11-06T12:52:19;11.30;99.90
2226;DHT22;1119;48.288;8.726;2022-11-06T12:55:03;11.10;99.90
2226;DHT22;1119;48.288;8.726;2022-11-06T12:57:49;12.10;99.90
2226;DHT22;1119;48.288;8.726;2022-11-06T13:00:35;11.20;99.90
2226;DHT22;1119;48.288;8.726;2022-11-06T13:03:22;12.00;99.90
2226;DHT22;1119;48.288;8.726;2022-11-06T13:06:03;11.40;99.90
2226;DHT22;1119;48.288;8.726;2022-11-06T13:08:39;11.00;99.90
2226;DHT22;1119;48.288;8.726;2022-11-06T13:11:24;10.70;99.90
2226;DHT22;1119;48.288;8.726;2022-11-06T13:14:10;10.70;99.90
2226;DHT22;1119;48.288;8.726;2022-11-06T13:16:49;10.70;99.90
2226;DHT22;1119;48.288;8.726;2022-11-06T13:19:25;10.90;99.90
2226;DHT22;1119;48.288;8.726;2022-11-06T13:22:15;10.70;99.90
2226;DHT22;1119;48.288;8.726;2022-11-06T13:24:52;10.80;99.90
2226;DHT22;1119;48.288;8.726;2022-11-06T13:27:27;11.20;99.90
2226;DHT22;1119;48.288;8.726;2022-11-06T13:30:00;10.80;99.90
2226;DHT22;1119;48.288;8.726;2022-11-06T13:32:33;10.40;99.50
2226;DHT22;1119;48.288;8.726;2022-11-06T13:35:02;10.60;99.40
2226;DHT22;1119;48.288;8.726;2022-11-06T13:37:38;10.40;98.90
2226;DHT22;1119;48.288;8.726;2022-11-06T13:40:20;11.10;99.40
2226;DHT22;1119;48.288;8.726;2022-11-06T13:42:54;11.20;98.90
2226;DHT22;1119;48.288;8.726;2022-11-06T13:45:25;10.30;98.50
2226;DHT22;1119;48.288;8.726;2022-11-06T13:48:08;10.80;99.10
2226;DHT22;1119;48.288;8.726;2022-11-06T13:50:49;10.90;99.60
2226;DHT22;1119;48.288;8.726;2022-11-06T13:53:24;11.00;99.80
2226;DHT22;1119;48.288;8.726;2022-11-06T13:56:09;10.90;99.90
2226;DHT22;1119;48.288;8.726;2022-11-06T13:59:15;10.20;99.90
2226;DHT22;1119;48.288;8.726;2022-11-06T14:01:58;10.10;99.90
2226;DHT22;1119;48.288;8.726;2022-11-06T14:04:46;10.00;99.90
2226;DHT22;1119;48.288;8.726;2022-11-06T14:07:33;9.90;99.90
2226;DHT22;1119;48.288;8.726;2022-11-06T14:10:02;9.80;99.90
2226;DHT22;1119;48.288;8.726;2022-11-06T14:12:30;10.00;99.90
2226;DHT22;1119;48.288;8.726;2022-11-06T14:15:14;9.80;99.90
2226;DHT22;1119;48.288;8.726;2022-11-06T14:17:53;9.90;99.90
2226;DHT22;1119;48.288;8.726;2022-11-06T14:20:29;9.80;99.90
2226;DHT22;1119;48.288;8.726;2022-11-06T14:26:13;9.60;99.90
2226;DHT22;1119;48.288;8.726;2022-11-06T14:29:42;9.60;99.90
2226;DHT22;1119;48.288;8.726;2022-11-06T14:32:51;9.60;99.90
2226;DHT22;1119;48.288;8.726;2022-11-06T14:35:50;9.60;99.90
2226;DHT22;1119;48.288;8.726;2022-11-06T14:38:36;9.50;99.90
2226;DHT22;1119;48.288;8.726;2022-11-06T14:44:42;9.60;99.90
2226;DHT22;1119;48.288;8.726;2022-11-06T14:47:33;9.70;99.90
2226;DHT22;1119;48.288;8.726;2022-11-06T14:50:05;9.70;99.90
2226;DHT22;1119;48.288;8.726;2022-11-06T14:52:43;9.70;99.90
2226;DHT22;1119;48.288;8.726;2022-11-06T14:55:25;9.60;99.90
2226;DHT22;1119;48.288;8.726;2022-11-06T14:57:57;10.10;99.90
2226;DHT22;1119;48.288;8.726;2022-11-06T15:00:36;9.70;99.90
2226;DHT22;1119;48.288;8.726;2022-11-06T15:03:18;9.20;99.90
2226;DHT22;1119;48.288;8.726;2022-11-06T15:05:58;9.30;99.90
2226;DHT22;1119;48.288;8.726;2022-11-06T15:08:52;9.20;99.90
2226;DHT22;1119;48.288;8.726;2022-11-06T15:11:50;9.30;99.90
2226;DHT22;1119;48.288;8.726;2022-11-06T15:17:34;9.10;99.90
2226;DHT22;1119;48.288;8.726;2022-11-06T15:20:19;9.00;99.90
2226;DHT22;1119;48.288;8.726;2022-11-06T15:23:05;8.90;99.90
2226;DHT22;1119;48.288;8.726;2022-11-06T15:25:46;8.80;99.90
2226;DHT22;1119;48.288;8.726;2022-11-06T15:28:19;8.70;99.90
2226;DHT22;1119;48.288;8.726;2022-11-06T15:30:53;8.80;99.90
2226;DHT22;1119;48.288;8.726;2022-11-06T15:33:27;8.50;99.90
2226;DHT22;1119;48.288;8.726;2022-11-06T15:36:02;8.70;99.90
2226;DHT22;1119;48.288;8.726;2022-11-06T15:38:40;8.60;99.90
2226;DHT22;1119;48.288;8.726;2022-11-06T15:41:14;8.60;99.90
2226;DHT22;1119;48.288;8.726;2022-11-06T15:43:45;8.60;99.90
2226;DHT22;1119;48.288;8.726;2022-11-06T15:46:19;8.60;99.90
2226;DHT22;1119;48.288;8.726;2022-11-06T15:49:11;9.10;99.90
2226;DHT22;1119;48.288;8.726;2022-11-06T15:51:50;8.40;99.90
2226;DHT22;1119;48.288;8.726;2022-11-06T15:54:33;8.40;99.90
2226;DHT22;1119;48.288;8.726;2022-11-06T15:57:09;8.00;99.90
2226;DHT22;1119;48.288;8.726;2022-11-06T15:59:41;8.30;99.90
2226;DHT22;1119;48.288;8.726;2022-11-06T16:02:15;8.20;99.90
2226;DHT22;1119;48.288;8.726;2022-11-06T16:04:44;8.20;99.90
2226;DHT22;1119;48.288;8.726;2022-11-06T16:07:13;7.80;99.90
2226;DHT22;1119;48.288;8.726;2022-11-06T16:09:42;8.10;99.90
2226;DHT22;1119;48.288;8.726;2022-11-06T16:12:14;8.10;99.90
2226;DHT22;1119;48.288;8.726;2022-11-06T16:14:44;8.00;99.90
2226;DHT22;1119;48.288;8.726;2022-11-06T16:17:15;8.00;99.90
2226;DHT22;1119;48.288;8.726;2022-11-06T16:19:46;7.90;99.90
2226;DHT22;1119;48.288;8.726;2022-11-06T16:22:16;7.90;99.90
2226;DHT22;1119;48.288;8.726;2022-11-06T16:24:48;7.40;99.90
2226;DHT22;1119;48.288;8.726;2022-11-06T16:27:18;7.90;99.90
2226;DHT22;1119;48.288;8.726;2022-11-06T16:29:50;7.90;99.90
2226;DHT22;1119;48.288;8.726;2022-11-06T16:32:22;7.90;99.90
2226;DHT22;1119;48.288;8.726;2022-11-06T16:34:50;7.90;99.90
2226;DHT22;1119;48.288;8.726;2022-11-06T16:37:37;8.30;99.90
2226;DHT22;1119;48.288;8.726;2022-11-06T16:43:17;7.80;99.90
2226;DHT22;1119;48.288;8.726;2022-11-06T16:45:57;7.80;99.90
2226;DHT22;1119;48.288;8.726;2022-11-06T16:48:27;7.70;99.90
2226;DHT22;1119;48.288;8.726;2022-11-06T16:51:05;8.50;99.90
2226;DHT22;1119;48.288;8.726;2022-11-06T16:53:51;8.80;99.90
2226;DHT22;1119;48.288;8.726;2022-11-06T16:56:26;7.90;99.90
2226;DHT22;1119;48.288;8.726;2022-11-06T16:59:02;7.90;99.90
2226;DHT22;1119;48.288;8.726;2022-11-06T17:01:39;7.90;99.90
2226;DHT22;1119;48.288;8.726;2022-11-06T17:04:17;7.90;99.90
2226;DHT22;1119;48.288;8.726;2022-11-06T17:06:46;8.30;99.90
2226;DHT22;1119;48.288;8.726;2022-11-06T17:09:28;7.50;99.90
2226;DHT22;1119;48.288;8.726;2022-11-06T17:11:57;8.00;99.90
2226;DHT22;1119;48.288;8.726;2022-11-06T17:14:26;7.90;99.90
2226;DHT22;1119;48.288;8.726;2022-11-06T17:16:56;9.20;99.90